createdAt,value
2022-07-28T00:00:42.012Z,21.71
2022-07-28T00:03:08.659Z,21.85
2022-07-28T00:05:36.069Z,21.88
2022-07-28T00:08:02.489Z,21.95
2022-07-28T00:10:29.279Z,21.79
2022-07-28T00:12:55.758Z,21.85
2022-07-28T00:15:22.282Z,21.81
2022-07-28T00:17:49.701Z,21.91
2022-07-28T00:20:16.123Z,21.94
2022-07-28T00:22:43.997Z,21.83
2022-07-28T00:25:11.491Z,21.77
2022-07-28T00:27:38.604Z,21.67
2022-07-28T00:30:08.891Z,22.19
2022-07-28T00:32:35.640Z,21.81
2022-07-28T00:35:02.498Z,21.81
2022-07-28T00:37:29.158Z,21.80
2022-07-28T00:39:56.034Z,22.04
2022-07-28T00:42:22.674Z,21.72
2022-07-28T00:44:49.559Z,21.97
2022-07-28T00:47:15.995Z,21.72
2022-07-28T00:49:44.742Z,21.74
2022-07-28T00:52:12.623Z,21.46
2022-07-28T00:54:39.202Z,21.62
2022-07-28T00:57:05.730Z,21.42
2022-07-28T00:59:33.585Z,21.44
2022-07-28T01:02:02.083Z,21.59
2022-07-28T01:04:29.806Z,21.61
2022-07-28T01:07:14.587Z,21.43
2022-07-28T01:09:59.901Z,22.04
2022-07-28T01:12:37.197Z,21.93
2022-07-28T01:15:22.375Z,21.48
2022-07-28T01:17:59.183Z,21.00
2022-07-28T01:20:38.884Z,21.33
2022-07-28T01:23:20.752Z,21.20
2022-07-28T01:26:10.243Z,21.76
2022-07-28T01:28:52.468Z,21.08
2022-07-28T01:31:25.682Z,21.18
2022-07-28T01:34:00.358Z,21.33
2022-07-28T01:36:32.794Z,21.20
2022-07-28T01:39:01.339Z,21.68
2022-07-28T01:41:31.409Z,21.02
2022-07-28T01:44:05.881Z,21.23
2022-07-28T01:46:34.090Z,20.99
2022-07-28T01:49:02.428Z,20.96
2022-07-28T01:51:32.530Z,20.88
2022-07-28T01:54:01.445Z,21.25
2022-07-28T01:56:30.716Z,20.91
2022-07-28T01:59:00.232Z,20.94
2022-07-28T02:01:28.094Z,20.87
2022-07-28T02:03:56.370Z,20.89
2022-07-28T02:06:23.641Z,20.73
2022-07-28T02:08:53.143Z,20.99
2022-07-28T02:11:38.285Z,20.49
2022-07-28T02:14:06.478Z,21.23
2022-07-28T02:16:32.912Z,21.09
2022-07-28T02:19:00.685Z,21.28
2022-07-28T02:21:31.086Z,20.97
2022-07-28T02:23:59.765Z,20.52
2022-07-28T02:26:35.345Z,20.80
2022-07-28T02:29:04.913Z,20.82
2022-07-28T02:31:51.618Z,20.77
2022-07-28T02:34:27.620Z,20.89
2022-07-28T02:36:57.833Z,20.72
2022-07-28T02:39:30.293Z,21.16
2022-07-28T02:42:10.558Z,21.17
2022-07-28T02:44:43.634Z,20.88
2022-07-28T02:47:12.616Z,20.65
2022-07-28T02:49:41.738Z,20.29
2022-07-28T02:52:10.068Z,20.47
2022-07-28T02:54:37.601Z,20.34
2022-07-28T02:57:05.335Z,20.19
2022-07-28T02:59:32.514Z,20.20
2022-07-28T03:01:59.535Z,20.34
2022-07-28T03:04:45.232Z,20.59
2022-07-28T03:07:12.515Z,20.30
2022-07-28T03:09:41.635Z,20.29
2022-07-28T03:12:09.742Z,20.17
2022-07-28T03:14:36.599Z,20.19
2022-07-28T03:17:03.746Z,20.33
2022-07-28T03:19:30.540Z,20.32
2022-07-28T03:21:57.017Z,20.67
2022-07-28T03:24:25.981Z,19.82
2022-07-28T03:27:18.850Z,20.51
2022-07-28T03:29:50.842Z,20.07
2022-07-28T03:32:20.294Z,19.74
2022-07-28T03:34:48.043Z,19.54
2022-07-28T03:37:18.787Z,19.79
2022-07-28T03:39:48.163Z,19.63
2022-07-28T03:42:18.642Z,19.76
2022-07-28T03:44:49.133Z,19.71
2022-07-28T03:47:20.322Z,19.68
2022-07-28T03:49:46.792Z,19.70
2022-07-28T03:52:13.323Z,19.63
2022-07-28T03:54:39.767Z,19.40
2022-07-28T03:57:06.170Z,19.74
2022-07-28T03:59:32.688Z,19.32
2022-07-28T04:01:59.460Z,19.56
2022-07-28T04:04:26.085Z,19.40
2022-07-28T04:06:52.579Z,19.42
2022-07-28T04:09:18.994Z,19.31
2022-07-28T04:11:45.431Z,19.52
2022-07-28T04:14:16.448Z,19.64
2022-07-28T04:16:44.270Z,19.31
2022-07-28T04:19:10.840Z,19.29
2022-07-28T04:21:37.243Z,19.29
2022-07-28T04:24:03.932Z,19.25
2022-07-28T04:26:30.423Z,19.55
2022-07-28T04:28:56.859Z,19.40
2022-07-28T04:31:32.137Z,19.33
2022-07-28T04:33:59.987Z,19.21
2022-07-28T04:36:26.537Z,19.22
2022-07-28T04:38:53.215Z,19.64
2022-07-28T04:41:20.364Z,19.50
2022-07-28T04:43:47.003Z,19.24
2022-07-28T04:46:15.274Z,19.34
2022-07-28T04:48:42.076Z,19.42
2022-07-28T04:51:08.555Z,19.26
2022-07-28T04:53:35.375Z,19.26
2022-07-28T04:56:01.805Z,19.45
2022-07-28T04:58:30.949Z,19.25
2022-07-28T05:00:57.743Z,19.77
2022-07-28T05:03:24.257Z,19.09
2022-07-28T05:05:54.008Z,19.97
2022-07-28T05:08:21.834Z,19.49
2022-07-28T05:10:51.855Z,19.40
2022-07-28T05:13:18.274Z,19.45
2022-07-28T05:15:44.690Z,19.61
2022-07-28T05:18:11.108Z,19.72
2022-07-28T05:20:37.519Z,19.53
2022-07-28T05:23:04.518Z,19.58
2022-07-28T05:25:31.012Z,19.75
2022-07-28T05:27:57.520Z,19.52
2022-07-28T05:30:24.127Z,19.73
2022-07-28T05:32:51.082Z,19.82
2022-07-28T05:35:17.605Z,20.18
2022-07-28T05:37:44.253Z,20.10
2022-07-28T05:40:14.093Z,20.07
2022-07-28T05:42:44.763Z,19.74
2022-07-28T05:45:16.467Z,20.00
2022-07-28T05:47:48.280Z,20.03
2022-07-28T05:50:17.181Z,20.48
2022-07-28T05:52:44.238Z,19.91
2022-07-28T05:55:11.076Z,20.17
2022-07-28T05:57:38.149Z,20.19
2022-07-28T06:00:10.353Z,20.06
2022-07-28T06:02:37.302Z,20.56
2022-07-28T06:05:06.485Z,20.17
2022-07-28T06:07:43.375Z,20.23
2022-07-28T06:10:12.435Z,20.23
2022-07-28T06:12:40.953Z,20.78
2022-07-28T06:15:11.828Z,19.94
2022-07-28T06:17:38.597Z,20.10
2022-07-28T06:20:05.638Z,20.02
2022-07-28T06:22:45.504Z,20.22
2022-07-28T06:25:20.053Z,20.31
2022-07-28T06:27:48.096Z,20.35
2022-07-28T06:30:14.969Z,20.73
2022-07-28T06:32:42.057Z,20.51
2022-07-28T06:35:09.307Z,20.65
2022-07-28T06:37:35.811Z,20.55
2022-07-28T06:40:02.757Z,20.70
2022-07-28T06:42:29.231Z,20.39
2022-07-28T06:44:59.459Z,20.44
2022-07-28T06:47:27.036Z,20.75
2022-07-28T06:49:53.482Z,20.63
2022-07-28T06:52:20.761Z,20.77
2022-07-28T06:54:48.694Z,20.80
2022-07-28T06:57:15.443Z,20.68
2022-07-28T06:59:43.420Z,20.83
2022-07-28T07:02:09.914Z,20.81
2022-07-28T07:04:36.616Z,20.98
2022-07-28T07:07:03.815Z,20.97
2022-07-28T07:09:41.448Z,20.66
2022-07-28T07:12:07.890Z,20.84
2022-07-28T07:14:34.342Z,20.93
2022-07-28T07:17:00.785Z,21.21
2022-07-28T07:19:27.192Z,21.10
2022-07-28T07:21:53.676Z,20.99
2022-07-28T07:24:20.108Z,21.13
2022-07-28T07:26:48.879Z,21.37
2022-07-28T07:29:15.429Z,21.27
2022-07-28T07:31:42.130Z,21.30
2022-07-28T07:34:08.637Z,21.64
2022-07-28T07:36:35.061Z,21.60
2022-07-28T07:39:01.534Z,22.07
2022-07-28T07:41:28.257Z,21.76
2022-07-28T07:43:57.165Z,21.59
2022-07-28T07:46:25.631Z,21.54
2022-07-28T07:48:52.138Z,21.56
2022-07-28T07:51:18.577Z,21.57
2022-07-28T07:53:44.974Z,21.80
2022-07-28T07:56:11.610Z,21.41
2022-07-28T07:58:38.036Z,21.59
2022-07-28T08:01:04.470Z,22.07
2022-07-28T08:03:30.925Z,21.96
2022-07-28T08:05:59.388Z,22.06
2022-07-28T08:08:26.624Z,22.07
2022-07-28T08:10:54.179Z,22.23
2022-07-28T08:13:21.087Z,22.94
2022-07-28T08:15:47.614Z,22.43
2022-07-28T08:18:14.207Z,22.42
2022-07-28T08:20:41.755Z,22.65
2022-07-28T08:23:08.206Z,22.81
2022-07-28T08:25:38.438Z,23.01
2022-07-28T08:28:05.141Z,22.89
2022-07-28T08:30:32.967Z,23.10
2022-07-28T08:33:00.284Z,23.48
2022-07-28T08:35:35.369Z,23.50
2022-07-28T08:38:06.313Z,23.40
2022-07-28T08:40:35.006Z,23.47
2022-07-28T08:43:16.408Z,23.72
2022-07-28T08:45:47.030Z,23.61
2022-07-28T08:48:14.465Z,23.63
2022-07-28T08:50:43.933Z,23.86
2022-07-28T08:53:10.751Z,23.54
2022-07-28T08:55:37.863Z,24.06
2022-07-28T08:58:04.599Z,24.47
2022-07-28T09:00:31.398Z,23.85
2022-07-28T09:02:58.316Z,24.47
2022-07-28T09:05:24.982Z,24.39
2022-07-28T09:07:55.331Z,24.28
2022-07-28T09:10:22.646Z,24.65
2022-07-28T09:12:49.150Z,24.52
2022-07-28T09:15:15.810Z,24.58
2022-07-28T09:17:42.822Z,24.75
2022-07-28T09:20:11.593Z,24.97
2022-07-28T09:22:55.677Z,25.09
2022-07-28T09:25:22.495Z,24.97
2022-07-28T09:27:49.067Z,24.88
2022-07-28T09:30:15.473Z,25.29
2022-07-28T09:32:41.884Z,25.46
2022-07-28T09:35:19.721Z,25.80
2022-07-28T09:37:46.440Z,25.63
2022-07-28T09:40:13.805Z,25.38
2022-07-28T09:42:50.078Z,25.86
2022-07-28T09:45:24.919Z,26.06
2022-07-28T09:48:12.609Z,26.22
2022-07-28T09:50:43.224Z,26.00
2022-07-28T09:53:23.917Z,26.27
2022-07-28T09:55:58.572Z,26.33
2022-07-28T09:58:26.654Z,26.19
2022-07-28T10:01:12.312Z,26.43
2022-07-28T10:03:41.541Z,26.43
2022-07-28T10:06:13.777Z,26.52
2022-07-28T10:08:42.110Z,26.79
2022-07-28T10:11:10.927Z,26.90
2022-07-28T10:14:09.080Z,26.96
2022-07-28T10:16:46.934Z,26.93
2022-07-28T10:19:13.344Z,27.26
2022-07-28T10:21:44.343Z,27.18
2022-07-28T10:24:20.048Z,27.44
2022-07-28T10:26:47.484Z,27.56
2022-07-28T10:29:16.566Z,27.36
2022-07-28T10:32:09.548Z,27.60
2022-07-28T10:34:44.749Z,27.71
2022-07-28T10:37:18.899Z,27.77
2022-07-28T10:39:55.480Z,27.75
2022-07-28T10:42:22.159Z,27.56
2022-07-28T10:44:49.751Z,27.74
2022-07-28T10:47:18.079Z,27.91
2022-07-28T10:49:48.550Z,27.84
2022-07-28T10:52:37.752Z,27.98
2022-07-28T10:55:31.885Z,28.40
2022-07-28T10:58:25.258Z,28.43
2022-07-28T11:00:59.609Z,28.45
2022-07-28T11:03:47.076Z,28.88
2022-07-28T11:06:36.741Z,29.09
2022-07-28T11:09:18.372Z,28.97
2022-07-28T11:11:57.770Z,29.13
2022-07-28T11:14:39.523Z,29.24
2022-07-28T11:17:10.104Z,29.34
2022-07-28T11:20:06.835Z,29.34
2022-07-28T11:22:31.976Z,29.29
2022-07-28T11:25:20.833Z,29.26
2022-07-28T11:27:54.204Z,29.43
2022-07-28T11:30:32.708Z,29.47
2022-07-28T11:33:00.173Z,29.42
2022-07-28T11:35:28.024Z,29.32
2022-07-28T11:38:00.459Z,29.51
2022-07-28T11:40:35.276Z,29.52
2022-07-28T11:43:33.980Z,29.67
2022-07-28T11:46:04.529Z,29.69
2022-07-28T11:48:31.474Z,29.75
2022-07-28T11:51:04.117Z,29.99
2022-07-28T11:53:34.729Z,29.96
2022-07-28T11:56:06.114Z,29.50
2022-07-28T11:58:32.633Z,29.20
2022-07-28T12:01:32.372Z,29.33
2022-07-28T12:04:13.262Z,30.06
2022-07-28T12:06:40.854Z,30.17
2022-07-28T12:09:09.923Z,30.17
2022-07-28T12:11:45.653Z,30.00
2022-07-28T12:14:17.574Z,30.01
2022-07-28T12:16:49.192Z,29.29
2022-07-28T12:19:17.126Z,29.05
2022-07-28T12:21:45.748Z,29.17
2022-07-28T12:24:16.113Z,28.86
2022-07-28T12:26:43.644Z,29.39
2022-07-28T12:29:14.459Z,29.21
2022-07-28T12:31:58.954Z,29.38
2022-07-28T12:34:29.337Z,29.37
2022-07-28T12:36:57.877Z,29.36
2022-07-28T12:39:25.721Z,29.59
2022-07-28T12:42:12.114Z,29.13
2022-07-28T12:44:43.760Z,29.60
2022-07-28T12:47:12.558Z,29.61
2022-07-28T12:49:42.755Z,29.78
2022-07-28T12:52:16.970Z,30.24
2022-07-28T12:54:43.461Z,30.22
2022-07-28T12:57:48.601Z,30.53
2022-07-28T13:00:19.306Z,30.10
2022-07-28T13:02:46.659Z,30.45
2022-07-28T13:05:55.453Z,30.52
2022-07-28T13:08:23.527Z,30.77
2022-07-28T13:10:55.605Z,30.78
2022-07-28T13:13:23.801Z,30.99
2022-07-28T13:16:13.515Z,31.27
2022-07-28T13:18:41.974Z,31.25
2022-07-28T13:23:51.949Z,31.44
2022-07-28T13:26:18.370Z,31.21
2022-07-28T13:28:44.766Z,30.93
2022-07-28T13:31:11.282Z,30.96
2022-07-28T13:33:37.760Z,31.21
2022-07-28T13:36:04.339Z,31.16
2022-07-28T13:38:31.138Z,31.45
2022-07-28T13:40:57.593Z,31.26
2022-07-28T13:43:23.983Z,31.11
2022-07-28T13:46:03.163Z,31.11
2022-07-28T13:48:32.737Z,31.61
2022-07-28T13:51:00.083Z,31.51
2022-07-28T13:53:27.102Z,31.68
2022-07-28T13:55:53.619Z,31.35
2022-07-28T13:58:20.082Z,31.41
2022-07-28T14:00:49.360Z,31.43
2022-07-28T14:03:15.980Z,30.71
2022-07-28T14:05:42.479Z,30.58
2022-07-28T14:08:09.434Z,30.00
2022-07-28T14:10:36.914Z,29.92
2022-07-28T14:13:03.456Z,30.28
2022-07-28T14:15:29.969Z,30.57
2022-07-28T14:17:56.466Z,30.63
2022-07-28T14:20:22.960Z,30.84
2022-07-28T14:22:50.392Z,30.68
2022-07-28T14:25:20.643Z,30.15
2022-07-28T14:27:47.855Z,30.18
2022-07-28T14:30:14.281Z,30.33
2022-07-28T14:32:40.666Z,30.57
2022-07-28T14:35:07.509Z,30.15
2022-07-28T14:37:47.429Z,30.17
2022-07-28T14:40:20.407Z,30.33
2022-07-28T14:42:46.879Z,30.17
2022-07-28T14:45:13.583Z,30.27
2022-07-28T14:47:44.877Z,30.15
2022-07-28T14:50:12.667Z,30.15
2022-07-28T14:52:39.173Z,30.05
2022-07-28T14:55:06.249Z,29.61
2022-07-28T14:57:51.796Z,29.35
2022-07-28T15:00:20.621Z,29.35
2022-07-28T15:02:47.646Z,29.39
2022-07-28T15:05:14.369Z,30.05
2022-07-28T15:07:42.246Z,29.92
2022-07-28T15:10:10.268Z,30.04
2022-07-28T15:12:37.108Z,29.93
2022-07-28T15:15:04.348Z,30.03
2022-07-28T15:17:30.874Z,30.03
2022-07-28T15:19:57.682Z,30.11
2022-07-28T15:22:26.349Z,30.62
2022-07-28T15:24:53.166Z,30.80
2022-07-28T15:27:19.580Z,29.99
2022-07-28T15:29:47.482Z,30.15
2022-07-28T15:32:18.550Z,29.73
2022-07-28T15:34:48.587Z,29.52
2022-07-28T15:37:16.033Z,29.68
2022-07-28T15:39:45.193Z,29.56
2022-07-28T15:42:11.882Z,29.36
2022-07-28T15:44:38.367Z,29.40
2022-07-28T15:47:04.970Z,29.19
2022-07-28T15:49:31.538Z,29.53
2022-07-28T15:52:00.785Z,29.40
2022-07-28T15:54:27.781Z,28.96
2022-07-28T15:56:54.155Z,29.13
2022-07-28T15:59:20.649Z,29.84
2022-07-28T16:01:47.069Z,29.95
2022-07-28T16:04:13.806Z,30.19
2022-07-28T16:06:59.269Z,29.78
2022-07-28T16:09:45.735Z,29.39
2022-07-28T16:12:14.345Z,29.91
2022-07-28T16:14:42.173Z,29.89
2022-07-28T16:17:09.765Z,30.18
2022-07-28T16:19:48.346Z,30.07
2022-07-28T16:22:16.245Z,30.21
2022-07-28T16:24:42.783Z,30.26
2022-07-28T16:27:09.235Z,29.31
2022-07-28T16:29:35.676Z,29.91
2022-07-28T16:32:05.091Z,29.81
2022-07-28T16:34:31.498Z,29.77
2022-07-28T16:36:58.114Z,29.46
2022-07-28T16:39:24.556Z,29.24
2022-07-28T16:41:52.777Z,29.65
2022-07-28T16:44:20.134Z,29.35
2022-07-28T16:46:46.675Z,29.64
2022-07-28T16:49:16.165Z,29.43
2022-07-28T16:51:42.881Z,29.63
2022-07-28T16:54:09.380Z,29.25
2022-07-28T16:56:35.866Z,29.22
2022-07-28T16:59:02.593Z,28.98
2022-07-28T17:01:29.034Z,29.40
2022-07-28T17:03:55.516Z,28.85
2022-07-28T17:06:22.029Z,29.26
2022-07-28T17:08:48.423Z,29.28
2022-07-28T17:11:15.809Z,29.01
2022-07-28T17:13:45.443Z,29.12
2022-07-28T17:16:12.921Z,28.82
2022-07-28T17:18:39.694Z,28.72
2022-07-28T17:21:06.350Z,28.56
2022-07-28T17:23:34.610Z,28.79
2022-07-28T17:26:52.637Z,28.77
2022-07-28T17:28:51.396Z,28.37
2022-07-28T17:31:18.160Z,28.62
2022-07-28T17:33:44.561Z,28.39
2022-07-28T17:36:11.023Z,28.28
2022-07-28T17:38:37.484Z,28.18
2022-07-28T17:41:04.493Z,28.04
2022-07-28T17:43:32.300Z,28.36
2022-07-28T17:45:58.869Z,28.45
2022-07-28T17:48:28.389Z,28.25
2022-07-28T17:50:54.861Z,28.03
2022-07-28T17:53:21.269Z,27.90
2022-07-28T17:56:00.085Z,28.07
2022-07-28T17:58:32.316Z,28.42
2022-07-28T18:01:10.653Z,28.39
2022-07-28T18:03:57.967Z,28.48
2022-07-28T18:06:33.545Z,28.66
2022-07-28T18:09:06.005Z,28.41
2022-07-28T18:11:55.401Z,28.55
2022-07-28T18:14:26.484Z,28.40
2022-07-28T18:16:52.997Z,28.64
2022-07-28T18:19:19.475Z,28.33
2022-07-28T18:21:45.859Z,28.27
2022-07-28T18:24:12.407Z,28.01
2022-07-28T18:26:39.082Z,27.82
2022-07-28T18:29:05.462Z,27.70
2022-07-28T18:31:32.109Z,27.62
2022-07-28T18:33:58.649Z,28.04
2022-07-28T18:36:25.393Z,28.36
2022-07-28T18:38:51.789Z,28.43
2022-07-28T18:41:18.234Z,28.53
2022-07-28T18:43:44.625Z,27.95
2022-07-28T18:46:11.083Z,28.42
2022-07-28T18:48:38.007Z,28.11
2022-07-28T18:51:04.791Z,28.36
2022-07-28T18:53:31.252Z,28.33
2022-07-28T18:55:58.033Z,27.87
2022-07-28T18:58:24.490Z,27.84
2022-07-28T19:00:50.955Z,27.73
2022-07-28T19:03:17.397Z,27.65
2022-07-28T19:05:46.105Z,27.57
2022-07-28T19:08:13.057Z,27.68
2022-07-28T19:10:39.559Z,27.74
2022-07-28T19:13:06.065Z,28.10
2022-07-28T19:15:40.476Z,27.57
2022-07-28T19:18:11.384Z,27.67
2022-07-28T19:20:43.936Z,27.37
2022-07-28T19:23:10.550Z,27.25
2022-07-28T19:25:39.228Z,27.63
2022-07-28T19:28:06.474Z,27.01
2022-07-28T19:30:33.189Z,27.16
2022-07-28T19:33:00.209Z,26.98
2022-07-28T19:35:26.805Z,27.41
2022-07-28T19:37:53.361Z,27.43
2022-07-28T19:40:19.950Z,27.32
2022-07-28T19:42:48.367Z,26.85
2022-07-28T19:45:15.036Z,27.04
2022-07-28T19:47:42.179Z,27.07
2022-07-28T19:50:08.833Z,26.87
2022-07-28T19:52:35.730Z,26.41
2022-07-28T19:55:05.248Z,26.68
2022-07-28T19:57:33.127Z,26.82
2022-07-28T19:59:59.755Z,26.71
2022-07-28T20:02:26.226Z,26.62
2022-07-28T20:04:52.695Z,26.35
2022-07-28T20:07:19.135Z,26.64
2022-07-28T20:09:45.546Z,26.32
2022-07-28T20:12:12.083Z,26.52
2022-07-28T20:14:38.513Z,26.69
2022-07-28T20:17:05.413Z,26.67
2022-07-28T20:19:34.040Z,26.39
2022-07-28T20:22:00.458Z,26.08
2022-07-28T20:24:26.977Z,26.37
2022-07-28T20:26:53.441Z,26.74
2022-07-28T20:29:19.830Z,26.49
2022-07-28T20:31:46.277Z,26.16
2022-07-28T20:34:13.169Z,26.39
2022-07-28T20:36:39.926Z,26.41
2022-07-28T20:39:27.377Z,26.68
2022-07-28T20:42:01.156Z,26.68
2022-07-28T20:44:29.272Z,26.75
2022-07-28T20:47:00.423Z,26.65
2022-07-28T20:49:29.654Z,26.74
2022-07-28T20:51:57.738Z,26.79
2022-07-28T20:54:25.196Z,26.88
2022-07-28T20:56:51.835Z,26.38
2022-07-28T20:59:18.283Z,26.53
2022-07-28T21:01:44.905Z,25.93
2022-07-28T21:04:11.892Z,26.29
2022-07-28T21:06:39.659Z,26.31
2022-07-28T21:09:17.995Z,26.13
2022-07-28T21:11:44.522Z,26.16
2022-07-28T21:14:10.921Z,26.33
2022-07-28T21:16:37.387Z,26.16
2022-07-28T21:19:04.406Z,26.04
2022-07-28T21:21:30.830Z,25.74
2022-07-28T21:23:57.343Z,25.53
2022-07-28T21:26:23.942Z,25.76
2022-07-28T21:29:09.044Z,25.31
2022-07-28T21:31:35.541Z,25.84
2022-07-28T21:34:22.017Z,25.69
2022-07-28T21:36:48.445Z,25.81
2022-07-28T21:39:15.014Z,26.04
2022-07-28T21:41:41.461Z,25.98
2022-07-28T21:44:07.947Z,25.67
2022-07-28T21:46:39.458Z,26.04
2022-07-28T21:49:06.298Z,25.94
2022-07-28T21:51:32.899Z,26.11
2022-07-28T21:54:00.028Z,25.90
2022-07-28T21:56:27.610Z,25.95
2022-07-28T21:58:54.240Z,25.50
2022-07-28T22:01:20.760Z,25.68
2022-07-28T22:03:47.398Z,25.77
2022-07-28T22:06:13.815Z,25.77
2022-07-28T22:08:40.245Z,25.55
2022-07-28T22:11:07.035Z,25.93
2022-07-28T22:13:33.495Z,25.83
2022-07-28T22:15:59.905Z,25.42
2022-07-28T22:18:26.384Z,25.65
2022-07-28T22:20:52.800Z,25.25
2022-07-28T22:23:28.799Z,25.60
2022-07-28T22:25:55.847Z,25.38
2022-07-28T22:28:29.853Z,25.41
2022-07-28T22:30:57.503Z,25.40
2022-07-28T22:33:24.022Z,25.31
2022-07-28T22:35:51.342Z,25.38
2022-07-28T22:38:18.082Z,25.32
2022-07-28T22:40:44.620Z,25.05
2022-07-28T22:43:11.101Z,25.34
2022-07-28T22:45:50.488Z,25.26
2022-07-28T22:48:17.619Z,25.54
2022-07-28T22:50:44.453Z,25.45
2022-07-28T22:53:10.886Z,25.45
2022-07-28T22:55:37.284Z,25.09
2022-07-28T22:58:05.745Z,25.43
2022-07-28T23:00:32.783Z,25.18
2022-07-28T23:03:02.687Z,25.29
2022-07-28T23:05:30.526Z,25.38
2022-07-28T23:07:57.656Z,25.26
2022-07-28T23:10:25.769Z,25.19
2022-07-28T23:12:52.258Z,25.20
2022-07-28T23:15:18.747Z,25.19
2022-07-28T23:17:45.206Z,25.11
2022-07-28T23:20:11.893Z,25.23
2022-07-28T23:22:38.327Z,25.17
2022-07-28T23:25:05.251Z,25.14
2022-07-28T23:27:31.750Z,25.11
2022-07-28T23:29:58.162Z,25.08
2022-07-28T23:32:24.558Z,25.09
2022-07-28T23:34:51.011Z,25.17
2022-07-28T23:37:17.525Z,25.24
2022-07-28T23:39:43.986Z,25.04
2022-07-28T23:42:10.560Z,25.00
2022-07-28T23:44:37.994Z,24.91
2022-07-28T23:47:04.571Z,24.42
2022-07-28T23:49:31.253Z,25.00
2022-07-28T23:51:57.692Z,24.97
2022-07-28T23:54:24.130Z,25.09
2022-07-28T23:56:51.730Z,24.62
2022-07-28T23:59:18.194Z,24.71
